Time;durP1;ratioP1;P1;durP2;ratioP2;P2;SDS_P1;SDS_P2;PMS_P1;PMS_P2;Temp;Humidity;BMP_temperature;BMP_pressure;BME280_temperature;BME280_humidity;BME280_pressure;Samples;Min_cycle;Max_cycle;Signal;HPM_P1;HPM_P2
2023/08/23 00:01:56;;;;;;;10.23;4.80;;;24.70;60.40;;;;;;5114147;28;20015;-53
2023/08/23 00:04:22;;;;;;;14.00;5.07;;;24.70;60.40;;;;;;5108753;28;20028;-56
2023/08/23 00:06:48;;;;;;;10.77;4.55;;;24.70;60.40;;;;;;5111273;28;20035;-51
2023/08/23 00:09:15;;;;;;;8.32;4.30;;;24.70;60.40;;;;;;5105302;28;20031;-57
2023/08/23 00:11:41;;;;;;;9.90;4.63;;;24.70;60.50;;;;;;5103074;28;20055;-57
2023/08/23 00:14:07;;;;;;;11.63;4.72;;;24.60;60.40;;;;;;5094196;28;20097;-56
2023/08/23 00:16:33;;;;;;;10.18;4.45;;;24.70;60.50;;;;;;5099278;28;20016;-56
2023/08/23 00:18:59;;;;;;;10.70;4.15;;;24.70;60.50;;;;;;5094466;28;20023;-57
2023/08/23 00:21:24;;;;;;;10.75;5.00;;;24.70;60.50;;;;;;5111183;22;20109;-47
2023/08/23 00:23:50;;;;;;;10.95;4.97;;;24.60;60.50;;;;;;5073100;28;20384;-46
2023/08/23 00:26:16;;;;;;;12.15;4.53;;;24.60;60.50;;;;;;5065857;28;20078;-46
2023/08/23 00:28:43;;;;;;;8.98;4.30;;;24.60;60.50;;;;;;5055693;28;20024;-46
2023/08/23 00:31:09;;;;;;;9.13;4.07;;;24.60;60.60;;;;;;5059992;28;20450;-43
2023/08/23 00:33:35;;;;;;;9.45;4.38;;;24.60;60.60;;;;;;5031172;28;20026;-43
2023/08/23 00:36:01;;;;;;;12.93;4.72;;;24.60;60.60;;;;;;5052212;28;20033;-43
2023/08/23 00:38:27;;;;;;;11.60;4.07;;;24.60;60.70;;;;;;5054129;28;20091;-44
2023/08/23 00:40:52;;;;;;;13.60;4.60;;;24.60;60.60;;;;;;5053021;28;20365;-45
2023/08/23 00:43:18;;;;;;;12.05;4.32;;;24.60;60.60;;;;;;5053745;28;20029;-45
2023/08/23 00:45:44;;;;;;;11.98;4.25;;;24.60;60.60;;;;;;5052424;28;20543;-44
2023/08/23 00:48:12;;;;;;;11.90;4.47;;;24.60;60.60;;;;;;5052133;28;20139;-45
2023/08/23 00:50:40;;;;;;;10.02;4.18;;;24.50;60.60;;;;;;5053523;28;20020;-44
2023/08/23 00:53:10;;;;;;;10.52;4.30;;;24.50;60.60;;;;;;5035474;28;20119;-44
2023/08/23 00:55:36;;;;;;;9.90;3.75;;;24.50;60.60;;;;;;5034640;28;20033;-45
2023/08/23 00:58:04;;;;;;;9.07;4.22;;;24.50;60.60;;;;;;5035923;28;20028;-44
2023/08/23 01:00:33;;;;;;;12.45;4.30;;;24.50;60.70;;;;;;5052869;28;20025;-46
2023/08/23 01:03:00;;;;;;;11.45;4.40;;;24.50;60.70;;;;;;5052554;28;20017;-45
2023/08/23 01:05:56;;;;;;;13.40;4.22;;;24.50;60.70;;;;;;5034937;28;20060;-45
2023/08/23 01:08:37;;;;;;;10.20;4.18;;;24.50;60.70;;;;;;5025933;28;20056;-48
2023/08/23 01:11:36;;;;;;;9.80;4.28;;;24.50;60.70;;;;;;5048114;28;20044;-43
2023/08/23 01:14:04;;;;;;;;;;;24.40;60.70;;;;;;5049945;28;20024;-46
2023/08/23 01:16:34;;;;;;;10.15;4.10;;;24.50;60.70;;;;;;5034393;28;20287;-43
2023/08/23 01:19:12;;;;;;;8.95;4.07;;;24.50;60.70;;;;;;5053064;28;20059;-48
2023/08/23 01:21:39;;;;;;;12.85;4.03;;;24.50;60.70;;;;;;5051731;28;20033;-44
2023/08/23 01:24:09;;;;;;;10.38;4.07;;;24.40;60.80;;;;;;5051054;28;20052;-43
2023/08/23 01:26:39;;;;;;;9.02;3.80;;;24.40;60.80;;;;;;5035282;28;20029;-43
2023/08/23 01:29:05;;;;;;;14.98;3.78;;;24.40;60.90;;;;;;5034064;28;20090;-43
2023/08/23 01:31:35;;;;;;;7.95;3.88;;;24.40;60.90;;;;;;5034569;28;20028;-43
2023/08/23 01:34:09;;;;;;;9.60;3.90;;;24.40;60.80;;;;;;5050597;28;20028;-46
2023/08/23 01:36:39;;;;;;;11.23;4.13;;;24.40;60.90;;;;;;5052087;28;20096;-45
2023/08/23 01:39:05;;;;;;;7.53;3.83;;;24.40;60.90;;;;;;5029537;28;20032;-43
2023/08/23 01:41:32;;;;;;;10.93;4.13;;;24.40;60.80;;;;;;5052042;28;20021;-44
2023/08/23 01:43:59;;;;;;;9.57;3.72;;;24.40;60.80;;;;;;5018094;28;20030;-49
2023/08/23 01:46:25;;;;;;;10.48;3.90;;;24.40;60.80;;;;;;5050766;28;20017;-47
2023/08/23 01:48:53;;;;;;;8.45;3.63;;;24.40;60.90;;;;;;5033873;28;20025;-44
2023/08/23 01:51:18;;;;;;;10.27;4.00;;;24.30;60.90;;;;;;5034590;28;20059;-48
2023/08/23 01:53:44;;;;;;;11.82;4.15;;;24.30;61.00;;;;;;5052086;28;20021;-43
2023/08/23 01:56:10;;;;;;;10.63;4.15;;;24.30;60.90;;;;;;5052269;28;20393;-44
2023/08/23 01:58:36;;;;;;;12.27;4.90;;;24.30;61.00;;;;;;5034597;28;20181;-44
2023/08/23 02:01:02;;;;;;;10.68;4.35;;;24.30;61.10;;;;;;5033193;28;20021;-46
2023/08/23 02:03:29;;;;;;;9.63;4.47;;;24.30;61.00;;;;;;5034272;28;20036;-43
2023/08/23 02:05:55;;;;;;;11.05;4.50;;;24.30;61.00;;;;;;5032323;28;20021;-48
2023/08/23 02:08:21;;;;;;;10.70;3.90;;;24.30;61.00;;;;;;5044758;28;20025;-46
2023/08/23 02:10:47;;;;;;;11.88;4.30;;;24.30;61.00;;;;;;5051366;28;20503;-51
2023/08/23 02:13:13;;;;;;;11.68;4.10;;;24.30;61.00;;;;;;5029287;28;20037;-46
2023/08/23 02:15:39;;;;;;;11.43;3.90;;;24.30;61.00;;;;;;5033666;28;20021;-45
2023/08/23 02:18:05;;;;;;;9.60;4.40;;;24.30;61.10;;;;;;5041890;28;20036;-46
2023/08/23 02:20:32;;;;;;;9.55;4.25;;;24.30;61.10;;;;;;5033851;28;20071;-44
2023/08/23 02:22:58;;;;;;;8.85;4.25;;;24.30;61.20;;;;;;5033917;28;20021;-44
2023/08/23 02:25:23;;;;;;;11.82;4.55;;;24.30;61.30;;;;;;5051150;28;20031;-49
2023/08/23 02:27:49;;;;;;;9.23;4.47;;;24.20;61.30;;;;;;5051094;28;20455;-49
2023/08/23 02:30:15;;;;;;;9.00;3.60;;;24.20;61.30;;;;;;5051193;28;20052;-43
2023/08/23 02:32:41;;;;;;;7.60;4.40;;;24.20;61.40;;;;;;5051246;28;20066;-43
2023/08/23 02:35:07;;;;;;;11.18;3.88;;;24.20;61.50;;;;;;5047813;28;20530;-45
2023/08/23 02:37:34;;;;;;;11.23;4.53;;;24.20;61.60;;;;;;5045340;28;20021;-46
2023/08/23 02:40:00;;;;;;;7.43;4.10;;;24.20;61.50;;;;;;5048447;28;20048;-44
2023/08/23 02:42:26;;;;;;;12.60;4.90;;;24.20;61.60;;;;;;5033466;28;20104;-43
2023/08/23 02:44:52;;;;;;;12.27;4.22;;;24.20;61.70;;;;;;5050692;28;20024;-44
2023/08/23 02:47:18;;;;;;;11.50;4.93;;;24.20;61.70;;;;;;5050196;28;20107;-44
2023/08/23 02:49:43;;;;;;;12.57;5.03;;;24.20;61.70;;;;;;5050661;28;20025;-46
2023/08/23 02:52:09;;;;;;;8.50;4.70;;;24.20;61.80;;;;;;5033319;28;20112;-44
2023/08/23 02:54:35;;;;;;;8.93;4.40;;;24.20;62.00;;;;;;5044014;28;20119;-46
2023/08/23 02:57:01;;;;;;;11.77;5.05;;;24.20;62.10;;;;;;5032222;28;20025;-43
2023/08/23 02:59:27;;;;;;;9.68;4.72;;;24.20;62.10;;;;;;5050242;28;20403;-48
2023/08/23 03:01:52;;;;;;;10.18;4.85;;;24.10;62.20;;;;;;5040596;28;20017;-47
2023/08/23 03:04:18;;;;;;;9.80;4.90;;;24.20;62.30;;;;;;5050326;28;20126;-46
2023/08/23 03:06:44;;;;;;;11.57;4.80;;;24.10;62.20;;;;;;5032979;28;20480;-43
2023/08/23 03:09:10;;;;;;;17.08;5.32;;;24.10;62.20;;;;;;5049751;28;20498;-46
2023/08/23 03:11:35;;;;;;;8.40;4.53;;;24.10;62.30;;;;;;5050440;28;20025;-48
2023/08/23 03:14:01;;;;;;;14.63;5.10;;;24.10;62.40;;;;;;5050269;28;20083;-46
2023/08/23 03:16:27;;;;;;;11.23;5.18;;;24.00;62.40;;;;;;5049763;28;20029;-47
2023/08/23 03:18:53;;;;;;;7.88;4.30;;;24.10;63.10;;;;;;5032365;28;20492;-44
2023/08/23 03:21:19;;;;;;;11.93;5.00;;;24.10;62.50;;;;;;5050680;28;20033;-43
2023/08/23 03:23:45;;;;;;;10.35;4.95;;;24.10;62.50;;;;;;5033065;28;20028;-48
2023/08/23 03:26:11;;;;;;;9.00;4.40;;;24.00;62.40;;;;;;5032245;28;20029;-44
2023/08/23 03:28:37;;;;;;;11.10;4.70;;;24.00;62.40;;;;;;5029142;28;20395;-44
2023/08/23 03:31:07;;;;;;;11.25;5.78;;;24.00;62.40;;;;;;5032057;28;20044;-49
2023/08/23 03:33:33;;;;;;;10.02;4.72;;;24.00;62.50;;;;;;5032592;28;20044;-43
2023/08/23 03:35:59;;;;;;;8.60;4.63;;;24.00;62.50;;;;;;5048190;28;20061;-43
2023/08/23 03:38:27;;;;;;;7.85;4.55;;;24.00;62.60;;;;;;5045621;28;20025;-46
2023/08/23 03:40:53;;;;;;;11.65;4.30;;;24.00;62.50;;;;;;5038609;28;20374;-44
2023/08/23 03:43:19;;;;;;;10.02;4.47;;;24.00;62.50;;;;;;5032341;28;20032;-45
2023/08/23 03:45:49;;;;;;;11.23;5.05;;;24.00;62.60;;;;;;5032463;28;20033;-44
2023/08/23 03:48:17;;;;;;;14.90;4.35;;;24.00;62.50;;;;;;5015604;28;20034;-46
2023/08/23 03:50:43;;;;;;;6.60;4.53;;;23.90;63.10;;;;;;5032941;28;20040;-46
2023/08/23 03:53:09;;;;;;;11.25;4.90;;;23.90;62.50;;;;;;5032626;28;20154;-43
2023/08/23 03:55:36;;;;;;;8.15;4.95;;;24.00;62.50;;;;;;5032034;28;20571;-43
2023/08/23 03:58:04;;;;;;;8.60;4.78;;;23.90;62.40;;;;;;5032984;28;20025;-44
2023/08/23 04:00:32;;;;;;;10.70;4.50;;;23.90;62.50;;;;;;5032407;28;20021;-45
2023/08/23 04:02:58;;;;;;;9.68;4.97;;;23.90;62.50;;;;;;5049182;28;20036;-43
2023/08/23 04:05:24;;;;;;;8.30;4.40;;;23.90;62.60;;;;;;5032125;28;20032;-51
2023/08/23 04:07:50;;;;;;;12.38;5.13;;;23.90;62.50;;;;;;5028387;28;20397;-45
2023/08/23 04:10:16;;;;;;;10.38;4.88;;;23.90;62.50;;;;;;5046208;28;20017;-44
2023/08/23 04:12:42;;;;;;;8.23;4.63;;;23.90;63.20;;;;;;5054350;28;20104;-45
2023/08/23 04:15:08;;;;;;;17.63;6.55;;;23.90;62.60;;;;;;5053910;28;20074;-48
2023/08/23 04:17:34;;;;;;;14.93;6.28;;;23.90;62.60;;;;;;5028302;28;20024;-44
2023/08/23 04:20:00;;;;;;;12.65;5.05;;;23.90;62.60;;;;;;5036048;28;20087;-43
2023/08/23 04:22:26;;;;;;;10.02;4.75;;;23.90;62.60;;;;;;5036642;28;20029;-47
2023/08/23 04:24:52;;;;;;;11.40;4.65;;;23.80;62.60;;;;;;5035970;28;20025;-49
2023/08/23 04:27:19;;;;;;;10.80;4.88;;;23.80;62.60;;;;;;5035926;28;20518;-45
2023/08/23 04:29:45;;;;;;;11.75;4.65;;;23.80;62.60;;;;;;5054119;28;20108;-49
2023/08/23 04:32:12;;;;;;;9.88;4.65;;;23.80;62.70;;;;;;5036195;28;20107;-45
2023/08/23 04:34:39;;;;;;;12.63;4.95;;;23.80;62.80;;;;;;5035930;28;20037;-44
2023/08/23 04:37:07;;;;;;;12.00;4.80;;;23.80;62.70;;;;;;5035955;28;20104;-47
2023/08/23 04:39:34;;;;;;;11.27;4.57;;;23.80;62.70;;;;;;5052753;28;20471;-47
2023/08/23 04:42:00;;;;;;;9.02;4.63;;;23.80;62.90;;;;;;5053572;28;20021;-45
2023/08/23 04:44:27;;;;;;;10.73;4.70;;;23.90;62.80;;;;;;5035071;28;20506;-46
2023/08/23 04:46:54;;;;;;;8.93;4.45;;;23.80;62.70;;;;;;5035347;28;20021;-45
2023/08/23 04:49:21;;;;;;;10.88;4.68;;;23.80;63.40;;;;;;5035158;28;20032;-49
2023/08/23 04:51:47;;;;;;;12.55;5.25;;;23.90;62.80;;;;;;5053596;28;20029;-43
2023/08/23 04:54:14;;;;;;;10.02;4.68;;;23.90;63.40;;;;;;5051742;28;20032;-51
2023/08/23 04:56:40;;;;;;;11.27;5.00;;;23.80;62.80;;;;;;5034945;28;20025;-46
2023/08/23 04:59:05;;;;;;;18.23;5.50;;;23.80;62.90;;;;;;5035127;28;20017;-45
2023/08/23 05:01:31;;;;;;;18.38;5.63;;;23.90;63.10;;;;;;5035116;28;20549;-47
2023/08/23 05:03:57;;;;;;;14.18;5.57;;;23.90;63.10;;;;;;5027546;28;20021;-48
2023/08/23 05:06:23;;;;;;;9.63;5.00;;;23.80;63.00;;;;;;5035063;28;20163;-45
2023/08/23 05:08:50;;;;;;;14.23;4.70;;;23.80;63.10;;;;;;5022657;28;20056;-45
2023/08/23 05:11:21;;;;;;;12.80;4.95;;;23.80;63.30;;;;;;5044972;28;20114;-46
2023/08/23 05:13:47;;;;;;;10.65;4.45;;;23.80;63.40;;;;;;5034681;28;20044;-49
2023/08/23 05:16:14;;;;;;;12.60;4.57;;;23.80;63.50;;;;;;5034837;28;20078;-48
2023/08/23 05:18:40;;;;;;;12.57;4.88;;;23.80;63.40;;;;;;5034586;28;20017;-50
2023/08/23 05:21:08;;;;;;;9.15;4.80;;;23.80;63.50;;;;;;5033590;28;20025;-45
2023/08/23 05:23:34;;;;;;;11.00;4.97;;;23.80;63.50;;;;;;5034926;28;20515;-47
2023/08/23 05:26:00;;;;;;;8.63;4.38;;;23.80;63.50;;;;;;5033059;28;20025;-50
2023/08/23 05:28:26;;;;;;;10.70;4.32;;;23.70;63.50;;;;;;5034646;28;20395;-48
2023/08/23 05:30:52;;;;;;;11.38;4.55;;;23.80;63.80;;;;;;5034223;28;20119;-48
2023/08/23 05:33:22;;;;;;;7.95;4.45;;;23.80;63.70;;;;;;5034874;28;20021;-46
2023/08/23 05:35:48;;;;;;;15.25;4.40;;;23.70;63.80;;;;;;5033732;28;20116;-45
2023/08/23 05:38:14;;;;;;;8.52;4.38;;;23.70;63.80;;;;;;5023611;28;20403;-43
2023/08/23 05:40:40;;;;;;;9.98;4.20;;;23.80;63.90;;;;;;5041455;28;20107;-46
2023/08/23 05:43:06;;;;;;;12.23;4.85;;;23.80;63.90;;;;;;5034142;28;20109;-46
2023/08/23 05:45:32;;;;;;;16.15;4.55;;;23.80;63.80;;;;;;5030576;28;20397;-47
2023/08/23 05:48:00;;;;;;;12.30;4.60;;;23.80;63.70;;;;;;5052714;28;20035;-43
2023/08/23 05:50:27;;;;;;;10.80;4.20;;;23.80;64.20;;;;;;5030684;28;20042;-47
2023/08/23 05:52:52;;;;;;;10.60;4.43;;;23.80;63.40;;;;;;5050901;28;20116;-44
2023/08/23 05:55:18;;;;;;;11.30;4.50;;;23.80;63.30;;;;;;5052267;28;20103;-43
2023/08/23 05:57:44;;;;;;;12.63;4.45;;;23.80;63.30;;;;;;5051552;28;20104;-44
2023/08/23 06:00:11;;;;;;;10.07;4.60;;;23.80;63.30;;;;;;5042700;28;20028;-45
2023/08/23 06:02:43;;;;;;;10.35;4.20;;;23.80;63.40;;;;;;5050585;28;20625;-47
2023/08/23 06:05:11;;;;;;;8.82;4.07;;;23.80;63.40;;;;;;5051127;28;20028;-44
2023/08/23 06:07:38;;;;;;;11.13;4.03;;;23.80;63.40;;;;;;5041656;28;20032;-45
2023/08/23 06:10:04;;;;;;;12.38;4.32;;;23.80;63.50;;;;;;5051408;28;20041;-44
2023/08/23 06:12:30;;;;;;;14.43;3.75;;;23.80;63.50;;;;;;5043839;28;20041;-47
2023/08/23 06:14:55;;;;;;;13.07;3.20;;;23.90;63.90;;;;;;5038588;28;20033;-43
2023/08/23 06:17:21;;;;;;;6.45;3.28;;;24.10;64.30;;;;;;5036905;28;20029;-44
2023/08/23 06:19:47;;;;;;;7.28;3.90;;;24.20;63.60;;;;;;5038705;28;20420;-43
2023/08/23 06:22:13;;;;;;;8.02;3.67;;;24.40;62.90;;;;;;5041002;28;20033;-48
2023/08/23 06:24:39;;;;;;;5.90;3.30;;;24.40;63.00;;;;;;5043422;28;20025;-44
2023/08/23 06:27:04;;;;;;;10.60;3.90;;;24.50;62.80;;;;;;5067199;22;20008;-54
2023/08/23 06:29:30;;;;;;;9.70;3.60;;;24.50;62.80;;;;;;5059423;28;20020;-54
2023/08/23 06:31:56;;;;;;;7.45;3.92;;;24.60;62.40;;;;;;5066355;28;20021;-50
2023/08/23 06:34:22;;;;;;;7.63;3.90;;;24.60;62.30;;;;;;5064961;28;20109;-50
2023/08/23 06:36:47;;;;;;;13.60;3.55;;;24.60;62.40;;;;;;5042891;28;20484;-49
2023/08/23 06:39:13;;;;;;;7.45;3.38;;;24.60;62.20;;;;;;5043413;28;20085;-48
2023/08/23 06:41:39;;;;;;;5.18;3.25;;;24.70;62.20;;;;;;5041083;28;20017;-55
2023/08/23 06:44:05;;;;;;;11.68;4.07;;;24.70;62.10;;;;;;5045873;28;20032;-50
2023/08/23 06:46:31;;;;;;;6.85;3.53;;;24.70;62.10;;;;;;5030159;28;20400;-51
2023/08/23 06:48:56;;;;;;;9.02;3.35;;;24.70;62.00;;;;;;5046163;28;20021;-55
2023/08/23 06:51:23;;;;;;;10.10;3.38;;;24.70;62.00;;;;;;5044484;28;20094;-50
2023/08/23 06:53:51;;;;;;;7.55;3.28;;;24.80;62.00;;;;;;5040655;28;20500;-55
2023/08/23 06:56:16;;;;;;;6.25;3.50;;;24.80;62.20;;;;;;5046165;28;20480;-53
2023/08/23 06:58:42;;;;;;;11.48;3.42;;;24.80;62.00;;;;;;5043776;28;20028;-54
2023/08/23 07:01:15;;;;;;;8.52;3.97;;;24.80;62.00;;;;;;5029593;28;20029;-52
2023/08/23 07:03:41;;;;;;;9.63;4.18;;;24.80;63.20;;;;;;5036469;28;20052;-54
2023/08/23 07:06:09;;;;;;;9.02;3.50;;;24.90;62.70;;;;;;5041571;28;20037;-52
2023/08/23 07:08:35;;;;;;;11.27;3.30;;;24.90;63.20;;;;;;5047718;28;20021;-51
2023/08/23 07:11:01;;;;;;;9.35;3.10;;;24.90;63.30;;;;;;5046058;28;20033;-51
2023/08/23 07:13:26;;;;;;;7.00;3.33;;;24.90;63.40;;;;;;5043146;28;20059;-49
2023/08/23 07:15:52;;;;;;;8.27;3.10;;;24.90;63.60;;;;;;5042077;28;20528;-50
2023/08/23 07:18:18;;;;;;;6.43;2.80;;;24.90;63.70;;;;;;5043330;28;20061;-49
2023/08/23 07:20:44;;;;;;;10.00;3.40;;;25.00;63.60;;;;;;5043917;28;20021;-52
2023/08/23 07:23:10;;;;;;;15.45;3.20;;;25.00;63.60;;;;;;5024555;28;20057;-50
2023/08/23 07:25:36;;;;;;;8.00;3.45;;;25.00;63.70;;;;;;5043810;28;20048;-47
2023/08/23 07:28:02;;;;;;;8.48;3.08;;;25.00;63.70;;;;;;5042047;28;20025;-50
2023/08/23 07:30:28;;;;;;;5.72;3.15;;;25.00;63.70;;;;;;5045101;28;20047;-49
2023/08/23 07:32:54;;;;;;;11.75;3.58;;;25.00;63.60;;;;;;5045367;28;20070;-48
2023/08/23 07:35:19;;;;;;;7.38;3.50;;;25.00;63.50;;;;;;5044431;28;20032;-48
2023/08/23 07:37:45;;;;;;;7.18;3.53;;;25.00;63.40;;;;;;5043532;28;20453;-48
2023/08/23 07:40:11;;;;;;;8.23;3.53;;;25.00;63.30;;;;;;5045208;28;20068;-49
2023/08/23 07:42:37;;;;;;;5.95;3.60;;;25.00;63.20;;;;;;5029608;28;20040;-49
2023/08/23 07:45:03;;;;;;;14.20;3.85;;;25.00;63.30;;;;;;5048822;28;20074;-49
2023/08/23 07:47:30;;;;;;;6.45;3.33;;;25.00;63.20;;;;;;5049092;28;20033;-49
2023/08/23 07:49:56;;;;;;;9.38;3.85;;;25.00;63.20;;;;;;5048621;28;20028;-48
2023/08/23 07:52:21;;;;;;;7.03;3.30;;;25.00;63.10;;;;;;5050520;28;20029;-55
2023/08/23 07:54:47;;;;;;;5.70;2.92;;;25.00;63.10;;;;;;5049459;28;20775;-50
2023/08/23 07:57:13;;;;;;;5.47;3.30;;;25.00;63.00;;;;;;5051206;28;20028;-50
2023/08/23 07:59:39;;;;;;;8.82;3.42;;;25.00;63.00;;;;;;5050331;28;20495;-52
2023/08/23 08:02:05;;;;;;;7.28;3.50;;;25.00;63.00;;;;;;5048154;28;20017;-49
2023/08/23 08:04:32;;;;;;;8.82;3.72;;;25.00;63.00;;;;;;5049369;28;20021;-54
2023/08/23 08:06:57;;;;;;;8.02;3.47;;;25.00;63.00;;;;;;5051598;28;20097;-53
2023/08/23 08:09:23;;;;;;;7.15;3.72;;;25.00;63.00;;;;;;5050362;28;20048;-49
2023/08/23 08:11:49;;;;;;;10.70;3.53;;;25.10;62.90;;;;;;5050687;28;20025;-56
2023/08/23 08:14:15;;;;;;;10.60;3.63;;;25.10;62.80;;;;;;5050038;28;20025;-54
2023/08/23 08:16:40;;;;;;;15.85;3.45;;;25.20;62.60;;;;;;5051271;28;20102;-50
2023/08/23 08:19:06;;;;;;;7.40;3.03;;;25.10;61.70;;;;;;5050398;28;20029;-51
2023/08/23 08:21:32;;;;;;;12.10;3.40;;;25.10;62.20;;;;;;5048019;28;20025;-50
2023/08/23 08:23:58;;;;;;;13.43;3.90;;;25.10;62.10;;;;;;5050164;28;20025;-50
2023/08/23 08:26:25;;;;;;;11.48;3.92;;;25.10;62.10;;;;;;5050958;28;20029;-52
2023/08/23 08:28:51;;;;;;;20.60;4.05;;;25.10;62.20;;;;;;5050674;28;20515;-52
2023/08/23 08:31:17;;;;;;;10.35;3.17;;;25.10;62.00;;;;;;5050519;28;20025;-54
2023/08/23 08:33:43;;;;;;;10.30;3.47;;;25.10;62.10;;;;;;5049485;28;20440;-51
2023/08/23 08:36:08;;;;;;;10.23;3.30;;;25.00;61.40;;;;;;5044442;28;20025;-51
2023/08/23 08:38:34;;;;;;;7.65;3.10;;;25.00;62.00;;;;;;5048890;28;20029;-49
2023/08/23 08:41:00;;;;;;;7.47;3.47;;;25.00;61.70;;;;;;5044579;28;20069;-53
2023/08/23 08:43:27;;;;;;;9.73;3.53;;;24.90;61.50;;;;;;5047640;28;20066;-49
2023/08/23 08:45:52;;;;;;;11.60;3.50;;;24.90;60.60;;;;;;5044151;28;20031;-54
2023/08/23 08:48:18;;;;;;;12.95;3.60;;;24.80;60.30;;;;;;5040375;28;20396;-49
2023/08/23 08:50:44;;;;;;;6.88;3.05;;;24.90;61.40;;;;;;5041188;28;20036;-52
2023/08/23 08:53:15;;;;;;;13.23;3.60;;;24.80;61.30;;;;;;5047326;28;20029;-53
2023/08/23 08:55:42;;;;;;;7.15;3.10;;;24.80;61.50;;;;;;5043799;28;20473;-52
2023/08/23 08:58:10;;;;;;;6.90;3.20;;;24.90;60.50;;;;;;5044258;28;20025;-51
2023/08/23 09:00:37;;;;;;;7.50;3.15;;;24.80;60.10;;;;;;5041741;28;20022;-53
2023/08/23 09:03:05;;;;;;;10.23;3.10;;;24.90;60.60;;;;;;5044360;28;20036;-51
2023/08/23 09:05:31;;;;;;;7.75;3.10;;;25.00;60.80;;;;;;5045180;28;20028;-55
2023/08/23 09:07:57;;;;;;;6.05;2.90;;;25.00;60.60;;;;;;5045075;28;20354;-56
2023/08/23 09:10:24;;;;;;;5.60;2.53;;;25.00;60.60;;;;;;5043616;28;20052;-51
2023/08/23 09:12:50;;;;;;;5.82;3.08;;;25.00;60.40;;;;;;5024844;28;20025;-52
2023/08/23 09:15:23;;;;;;;15.15;3.60;;;25.00;60.40;;;;;;5045192;28;20071;-52
2023/08/23 09:17:54;;;;;;;10.48;3.40;;;25.00;60.00;;;;;;5044864;28;20021;-53
2023/08/23 09:20:21;;;;;;;8.73;3.60;;;25.00;60.10;;;;;;5044986;28;20417;-51
2023/08/23 09:22:54;;;;;;;12.73;3.28;;;24.90;59.00;;;;;;5024775;28;20022;-50
2023/08/23 09:25:22;;;;;;;8.35;2.88;;;25.00;60.10;;;;;;5045808;28;20078;-50
2023/08/23 09:27:47;;;;;;;10.57;3.15;;;25.00;59.90;;;;;;5044387;28;20034;-55
2023/08/23 09:30:14;;;;;;;8.27;2.78;;;25.00;60.00;;;;;;5045633;28;20036;-50
2023/08/23 09:32:43;;;;;;;11.15;3.15;;;25.10;59.90;;;;;;5045231;28;20039;-49
2023/08/23 09:35:13;;;;;;;9.80;3.65;;;25.00;60.00;;;;;;5044706;28;20025;-50
2023/08/23 09:37:41;;;;;;;10.90;2.72;;;25.00;59.30;;;;;;5046722;28;20024;-52
2023/08/23 09:40:19;;;;;;;10.82;2.95;;;25.10;59.60;;;;;;5032429;28;20032;-49
2023/08/23 09:42:46;;;;;;;5.10;2.50;;;25.00;59.80;;;;;;5043589;28;20036;-52
2023/08/23 09:45:22;;;;;;;9.25;3.47;;;25.00;59.80;;;;;;5044736;28;20033;-52
2023/08/23 09:47:53;;;;;;;8.88;2.70;;;25.00;59.50;;;;;;5046727;28;20059;-51
2023/08/23 09:50:20;;;;;;;10.10;2.90;;;25.00;60.40;;;;;;5046372;28;20025;-49
2023/08/23 09:52:51;;;;;;;5.90;2.53;;;25.00;59.00;;;;;;5044521;28;20395;-52
2023/08/23 09:55:17;;;;;;;6.85;2.47;;;25.00;59.90;;;;;;5045272;28;20053;-52
2023/08/23 09:57:43;;;;;;;8.40;2.58;;;25.00;59.60;;;;;;5047370;28;20068;-55
2023/08/23 10:00:10;;;;;;;6.95;2.42;;;25.00;59.60;;;;;;5045999;28;20048;-54
2023/08/23 10:02:37;;;;;;;9.10;3.58;;;25.00;59.90;;;;;;5046839;28;20025;-56
2023/08/23 10:05:06;;;;;;;6.03;2.65;;;25.00;59.70;;;;;;5045355;28;20733;-53
2023/08/23 10:07:34;;;;;;;9.73;3.42;;;25.00;59.50;;;;;;5032016;28;20020;-56
2023/08/23 10:10:01;;;;;;;9.15;2.92;;;25.00;59.80;;;;;;5047225;28;20043;-53
2023/08/23 10:12:28;;;;;;;7.38;2.80;;;25.00;59.60;;;;;;5031963;28;20033;-56
2023/08/23 10:14:56;;;;;;;11.10;2.63;;;25.00;58.90;;;;;;5028615;28;20025;-50
2023/08/23 10:17:23;;;;;;;7.20;2.40;;;25.00;58.90;;;;;;5012420;28;20027;-54
2023/08/23 10:19:52;;;;;;;7.30;2.67;;;24.90;57.60;;;;;;5047783;28;20049;-51
2023/08/23 10:22:19;;;;;;;7.22;2.35;;;24.90;58.30;;;;;;5031328;28;20035;-53
2023/08/23 10:24:48;;;;;;;7.85;2.50;;;25.00;58.70;;;;;;5047323;28;20060;-55
2023/08/23 10:27:15;;;;;;;12.52;3.28;;;25.00;58.60;;;;;;5046266;28;20036;-51
2023/08/23 10:29:41;;;;;;;11.95;2.90;;;25.00;57.60;;;;;;5048193;28;20096;-54
2023/08/23 10:32:11;;;;;;;10.88;2.60;;;25.10;57.60;;;;;;5048357;28;20123;-54
2023/08/23 10:34:39;;;;;;;7.05;2.42;;;25.10;57.60;;;;;;5014739;28;20377;-55
2023/08/23 10:37:18;;;;;;;9.73;2.55;;;25.20;57.70;;;;;;5047443;28;20546;-57
2023/08/23 10:39:49;;;;;;;;;;;25.20;57.70;;;;;;5049106;28;20041;-54
2023/08/23 10:42:16;;;;;;;7.40;2.08;;;25.20;58.00;;;;;;5047091;28;20420;-56
2023/08/23 10:44:45;;;;;;;7.40;2.28;;;25.30;57.80;;;;;;5048364;28;20036;-56
2023/08/23 10:47:15;;;;;;;7.15;2.38;;;25.20;58.00;;;;;;5030849;28;20127;-55
2023/08/23 10:49:41;;;;;;;7.03;2.17;;;25.10;57.70;;;;;;5049015;28;20055;-56
2023/08/23 10:52:07;;;;;;;9.05;2.40;;;25.10;58.00;;;;;;5031224;28;20061;-56
2023/08/23 10:54:34;;;;;;;7.10;2.65;;;25.10;58.00;;;;;;5043915;28;20025;-57
2023/08/23 10:57:00;;;;;;;7.35;2.20;;;25.10;57.30;;;;;;5039752;28;20488;-57
2023/08/23 10:59:26;;;;;;;8.18;2.40;;;25.10;57.70;;;;;;5044727;28;20012;-56
2023/08/23 11:01:52;;;;;;;13.85;2.88;;;25.10;58.10;;;;;;5044366;28;20100;-55
2023/08/23 11:04:18;;;;;;;7.53;2.67;;;25.10;57.10;;;;;;5040965;28;20036;-57
2023/08/23 11:06:45;;;;;;;7.72;2.25;;;25.20;56.80;;;;;;5044596;28;20025;-56
2023/08/23 11:09:11;;;;;;;7.32;2.53;;;25.20;56.70;;;;;;5045016;28;20036;-56
2023/08/23 11:11:36;;;;;;;6.38;2.15;;;25.20;56.90;;;;;;5044789;28;20025;-56
2023/08/23 11:14:03;;;;;;;10.52;2.63;;;25.10;56.80;;;;;;5045079;28;20104;-56
2023/08/23 11:16:29;;;;;;;5.38;2.13;;;25.10;57.30;;;;;;5045265;28;20033;-54
2023/08/23 11:18:55;;;;;;;6.57;2.50;;;25.20;56.80;;;;;;5045103;28;20474;-54
2023/08/23 11:21:20;;;;;;;9.43;2.25;;;25.20;56.80;;;;;;5045702;28;20032;-56
2023/08/23 11:23:47;;;;;;;7.93;2.40;;;25.20;56.80;;;;;;5044627;28;20076;-54
2023/08/23 11:26:14;;;;;;;10.25;2.40;;;25.10;56.70;;;;;;5045594;28;20028;-54
2023/08/23 11:28:39;;;;;;;5.53;2.33;;;25.10;56.80;;;;;;5047230;28;20068;-55
2023/08/23 11:31:08;;;;;;;6.93;2.15;;;25.10;56.50;;;;;;5044626;28;20053;-51
2023/08/23 11:33:37;;;;;;;5.43;1.93;;;25.10;57.50;;;;;;5014005;28;20035;-54
2023/08/23 11:36:03;;;;;;;6.03;2.05;;;25.10;57.10;;;;;;5044793;28;20648;-52
2023/08/23 11:38:30;;;;;;;5.90;2.00;;;25.10;57.20;;;;;;5048449;28;20025;-55
2023/08/23 11:40:59;;;;;;;6.93;2.42;;;25.20;57.40;;;;;;5028440;28;20030;-54
2023/08/23 11:43:27;;;;;;;5.93;2.30;;;25.30;57.00;;;;;;5046165;28;20029;-52
2023/08/23 11:45:53;;;;;;;7.60;2.50;;;25.30;56.80;;;;;;5047340;28;20021;-52
2023/08/23 11:48:21;;;;;;;9.68;2.38;;;25.30;56.00;;;;;;5031803;28;20032;-55
2023/08/23 11:50:48;;;;;;;3.30;1.90;;;25.30;55.70;;;;;;5045411;28;20040;-55
2023/08/23 11:53:14;;;;;;;5.40;2.17;;;25.20;56.40;;;;;;5048033;28;20025;-54
2023/08/23 11:55:40;;;;;;;6.13;2.35;;;25.30;56.20;;;;;;5049151;28;20036;-54
2023/08/23 11:58:06;;;;;;;4.88;2.03;;;25.20;56.30;;;;;;5048412;28;20025;-52
2023/08/23 12:00:35;;;;;;;9.05;2.00;;;25.20;55.70;;;;;;5048658;28;20074;-52
2023/08/23 12:03:02;;;;;;;4.93;2.00;;;25.20;55.90;;;;;;5046850;28;20043;-51
2023/08/23 12:05:28;;;;;;;4.85;2.05;;;25.10;55.20;;;;;;5046033;28;20025;-52
2023/08/23 12:07:53;;;;;;;5.30;1.90;;;25.10;55.80;;;;;;5047045;28;20036;-52
2023/08/23 12:10:19;;;;;;;4.07;2.22;;;25.10;55.40;;;;;;5048740;28;20053;-52
2023/08/23 12:12:45;;;;;;;5.32;2.20;;;25.00;54.20;;;;;;5047759;28;20028;-54
2023/08/23 12:15:11;;;;;;;7.68;2.35;;;25.10;55.30;;;;;;5047133;28;20029;-52
2023/08/23 12:17:37;;;;;;;6.07;2.13;;;25.00;54.60;;;;;;5048352;28;20025;-50
2023/08/23 12:20:04;;;;;;;6.22;1.90;;;25.10;55.00;;;;;;5046798;28;20476;-50
2023/08/23 12:22:31;;;;;;;6.75;2.28;;;25.10;54.30;;;;;;5041719;28;20018;-52
2023/08/23 12:24:57;;;;;;;6.30;2.10;;;25.10;54.10;;;;;;5040776;28;20025;-52
2023/08/23 12:27:23;;;;;;;8.52;2.28;;;25.10;54.20;;;;;;5040262;28;20083;-53
2023/08/23 12:29:49;;;;;;;4.60;1.90;;;25.10;54.40;;;;;;5041367;28;20491;-52
2023/08/23 12:32:14;;;;;;;4.10;2.10;;;25.10;54.80;;;;;;5047341;28;20020;-52
2023/08/23 12:34:40;;;;;;;6.35;1.88;;;25.10;54.70;;;;;;5044230;28;20033;-51
2023/08/23 12:37:06;;;;;;;5.85;2.30;;;25.20;54.40;;;;;;5033730;28;20036;-51
2023/08/23 12:39:32;;;;;;;8.25;2.60;;;25.20;54.70;;;;;;5047317;28;20018;-51
2023/08/23 12:41:57;;;;;;;7.38;2.20;;;25.30;54.50;;;;;;5041988;28;20028;-50